sensor_id;sensor_type;location;lat;lon;timestamp;pressure;altitude;pressure_sealevel;temperature;humidity
11190;BME280;5651;50.926;4.718;2023-02-21T00:02:20;102074.47;;;8.13;100.00
11190;BME280;5651;50.926;4.718;2023-02-21T00:05:04;102074.28;;;8.05;100.00
11190;BME280;5651;50.926;4.718;2023-02-21T00:07:49;102066.81;;;8.18;100.00
11190;BME280;5651;50.926;4.718;2023-02-21T00:10:33;102043.00;;;8.36;100.00
11190;BME280;5651;50.926;4.718;2023-02-21T00:13:17;102047.31;;;8.34;100.00
11190;BME280;5651;50.926;4.718;2023-02-21T00:16:01;102059.13;;;8.22;100.00
11190;BME280;5651;50.926;4.718;2023-02-21T00:18:46;102060.09;;;8.26;100.00
11190;BME280;5651;50.926;4.718;2023-02-21T00:21:30;102053.72;;;8.13;100.00
11190;BME280;5651;50.926;4.718;2023-02-21T00:24:16;102052.25;;;8.23;100.00
11190;BME280;5651;50.926;4.718;2023-02-21T00:27:02;102066.66;;;8.12;100.00
11190;BME280;5651;50.926;4.718;2023-02-21T00:29:47;102063.13;;;8.09;100.00
11190;BME280;5651;50.926;4.718;2023-02-21T00:32:32;102061.38;;;8.08;100.00
11190;BME280;5651;50.926;4.718;2023-02-21T00:35:16;102059.97;;;8.21;100.00
11190;BME280;5651;50.926;4.718;2023-02-21T00:38:01;102053.13;;;8.25;100.00
11190;BME280;5651;50.926;4.718;2023-02-21T00:40:46;102050.28;;;8.14;100.00
11190;BME280;5651;50.926;4.718;2023-02-21T00:43:32;102065.56;;;8.02;100.00
11190;BME280;5651;50.926;4.718;2023-02-21T00:46:17;102072.41;;;8.00;100.00
11190;BME280;5651;50.926;4.718;2023-02-21T00:49:02;102074.16;;;8.01;100.00
11190;BME280;5651;50.926;4.718;2023-02-21T00:51:47;102063.22;;;8.13;100.00
11190;BME280;5651;50.926;4.718;2023-02-21T00:54:32;102052.81;;;8.11;100.00
11190;BME280;5651;50.926;4.718;2023-02-21T00:57:16;102061.44;;;8.10;100.00
11190;BME280;5651;50.926;4.718;2023-02-21T01:00:01;102059.66;;;8.07;100.00
11190;BME280;5651;50.926;4.718;2023-02-21T01:02:45;102051.78;;;8.04;100.00
11190;BME280;5651;50.926;4.718;2023-02-21T01:05:29;102045.09;;;8.14;100.00
11190;BME280;5651;50.926;4.718;2023-02-21T01:08:14;102051.78;;;8.06;100.00
11190;BME280;5651;50.926;4.718;2023-02-21T01:10:58;102052.56;;;8.02;100.00
11190;BME280;5651;50.926;4.718;2023-02-21T01:13:43;102055.81;;;7.93;100.00
11190;BME280;5651;50.926;4.718;2023-02-21T01:16:29;102048.94;;;7.95;100.00
11190;BME280;5651;50.926;4.718;2023-02-21T01:19:14;102043.84;;;8.00;100.00
11190;BME280;5651;50.926;4.718;2023-02-21T01:21:58;102039.72;;;8.06;100.00
11190;BME280;5651;50.926;4.718;2023-02-21T01:24:42;102027.72;;;8.12;100.00
11190;BME280;5651;50.926;4.718;2023-02-21T01:27:27;102031.13;;;8.09;100.00
11190;BME280;5651;50.926;4.718;2023-02-21T01:30:11;102036.66;;;7.89;100.00
11190;BME280;5651;50.926;4.718;2023-02-21T01:32:55;102038.91;;;7.75;100.00
11190;BME280;5651;50.926;4.718;2023-02-21T01:35:39;102046.06;;;7.84;100.00
11190;BME280;5651;50.926;4.718;2023-02-21T01:38:23;102042.59;;;7.84;100.00
11190;BME280;5651;50.926;4.718;2023-02-21T01:41:08;102039.34;;;7.92;100.00
11190;BME280;5651;50.926;4.718;2023-02-21T01:44:43;102036.88;;;7.97;100.00
11190;BME280;5651;50.926;4.718;2023-02-21T01:47:29;102040.88;;;7.84;100.00
11190;BME280;5651;50.926;4.718;2023-02-21T01:52:58;102038.44;;;7.90;100.00
11190;BME280;5651;50.926;4.718;2023-02-21T01:55:44;102033.91;;;7.83;100.00
11190;BME280;5651;50.926;4.718;2023-02-21T01:58:31;102041.69;;;7.83;100.00
11190;BME280;5651;50.926;4.718;2023-02-21T02:01:24;102039.94;;;7.82;100.00
11190;BME280;5651;50.926;4.718;2023-02-21T02:04:09;102033.91;;;7.83;100.00
11190;BME280;5651;50.926;4.718;2023-02-21T02:06:53;102035.78;;;7.87;100.00
11190;BME280;5651;50.926;4.718;2023-02-21T02:09:37;102026.91;;;7.79;100.00
11190;BME280;5651;50.926;4.718;2023-02-21T02:12:35;102020.53;;;7.68;100.00
11190;BME280;5651;50.926;4.718;2023-02-21T02:15:20;102021.56;;;7.73;100.00
11190;BME280;5651;50.926;4.718;2023-02-21T02:24:10;102014.34;;;7.63;100.00
11190;BME280;5651;50.926;4.718;2023-02-21T02:34:55;102012.59;;;7.61;100.00
11190;BME280;5651;50.926;4.718;2023-02-21T02:46:11;102011.91;;;7.67;100.00
11190;BME280;5651;50.926;4.718;2023-02-21T02:48:42;102013.50;;;7.62;100.00
11190;BME280;5651;50.926;4.718;2023-02-21T02:51:14;102000.69;;;7.68;100.00
11190;BME280;5651;50.926;4.718;2023-02-21T02:53:40;101999.66;;;7.63;100.00
11190;BME280;5651;50.926;4.718;2023-02-21T02:56:08;101990.91;;;7.59;100.00
11190;BME280;5651;50.926;4.718;2023-02-21T02:58:41;101990.06;;;7.59;100.00
11190;BME280;5651;50.926;4.718;2023-02-21T03:04:11;101987.38;;;7.56;100.00
11190;BME280;5651;50.926;4.718;2023-02-21T03:09:33;101980.19;;;7.79;100.00
11190;BME280;5651;50.926;4.718;2023-02-21T03:14:37;101978.91;;;7.63;100.00
11190;BME280;5651;50.926;4.718;2023-02-21T03:17:08;101971.91;;;7.59;100.00
11190;BME280;5651;50.926;4.718;2023-02-21T03:19:38;101973.78;;;7.65;100.00
11190;BME280;5651;50.926;4.718;2023-02-21T03:22:07;101961.13;;;7.77;100.00
11190;BME280;5651;50.926;4.718;2023-02-21T03:24:36;101967.75;;;7.66;100.00
11190;BME280;5651;50.926;4.718;2023-02-21T03:27:05;101966.72;;;7.59;100.00
11190;BME280;5651;50.926;4.718;2023-02-21T03:29:33;101973.09;;;7.72;100.00
11190;BME280;5651;50.926;4.718;2023-02-21T03:32:06;101959.34;;;7.76;100.00
11190;BME280;5651;50.926;4.718;2023-02-21T03:34:40;101964.94;;;7.58;100.00
11190;BME280;5651;50.926;4.718;2023-02-21T03:37:09;101960.75;;;7.63;100.00
11190;BME280;5651;50.926;4.718;2023-02-21T03:39:35;101965.91;;;7.61;100.00
11190;BME280;5651;50.926;4.718;2023-02-21T03:42:01;101964.38;;;7.68;100.00
11190;BME280;5651;50.926;4.718;2023-02-21T03:44:27;101963.47;;;7.68;100.00
11190;BME280;5651;50.926;4.718;2023-02-21T03:46:53;101958.06;;;7.58;100.00
11190;BME280;5651;50.926;4.718;2023-02-21T03:49:19;101957.13;;;7.56;100.00
11190;BME280;5651;50.926;4.718;2023-02-21T03:51:45;101952.88;;;7.58;100.00
11190;BME280;5651;50.926;4.718;2023-02-21T03:54:10;101961.66;;;7.64;100.00
11190;BME280;5651;50.926;4.718;2023-02-21T03:56:36;101960.81;;;7.65;100.00
11190;BME280;5651;50.926;4.718;2023-02-21T03:59:02;101963.31;;;7.61;100.00
11190;BME280;5651;50.926;4.718;2023-02-21T04:01:28;101959.84;;;7.61;100.00
11190;BME280;5651;50.926;4.718;2023-02-21T04:03:53;101957.88;;;7.52;100.00
11190;BME280;5651;50.926;4.718;2023-02-21T04:06:19;101954.69;;;7.63;100.00
11190;BME280;5651;50.926;4.718;2023-02-21T04:08:45;101955.88;;;7.74;100.00
11190;BME280;5651;50.926;4.718;2023-02-21T04:11:11;101946.16;;;7.67;100.00
11190;BME280;5651;50.926;4.718;2023-02-21T04:13:36;101959.97;;;7.66;100.00
11190;BME280;5651;50.926;4.718;2023-02-21T04:16:03;101959.78;;;7.59;100.00
11190;BME280;5651;50.926;4.718;2023-02-21T04:18:28;101960.88;;;7.68;100.00
11190;BME280;5651;50.926;4.718;2023-02-21T04:20:54;101948.81;;;7.70;100.00
11190;BME280;5651;50.926;4.718;2023-02-21T04:23:20;101951.97;;;7.58;100.00
11190;BME280;5651;50.926;4.718;2023-02-21T04:25:47;101963.75;;;7.45;100.00
11190;BME280;5651;50.926;4.718;2023-02-21T04:28:13;101954.47;;;7.53;100.00
11190;BME280;5651;50.926;4.718;2023-02-21T04:30:39;101963.28;;;7.60;100.00
11190;BME280;5651;50.926;4.718;2023-02-21T04:33:04;101956.47;;;7.64;100.00
11190;BME280;5651;50.926;4.718;2023-02-21T04:35:30;101961.56;;;7.60;100.00
11190;BME280;5651;50.926;4.718;2023-02-21T04:37:56;101962.38;;;7.59;100.00
11190;BME280;5651;50.926;4.718;2023-02-21T04:40:21;101958.84;;;7.56;100.00
11190;BME280;5651;50.926;4.718;2023-02-21T04:42:47;101954.22;;;7.44;100.00
11190;BME280;5651;50.926;4.718;2023-02-21T04:45:13;101955.75;;;7.36;100.00
11190;BME280;5651;50.926;4.718;2023-02-21T04:47:38;101955.63;;;7.31;100.00
11190;BME280;5651;50.926;4.718;2023-02-21T04:50:05;101954.72;;;7.30;100.00
11190;BME280;5651;50.926;4.718;2023-02-21T04:52:31;101955.19;;;7.16;100.00
11190;BME280;5651;50.926;4.718;2023-02-21T04:54:57;101952.66;;;7.17;100.00
11190;BME280;5651;50.926;4.718;2023-02-21T04:57:23;101957.63;;;7.09;100.00
11190;BME280;5651;50.926;4.718;2023-02-21T04:59:55;101946.59;;;7.17;100.00
11190;BME280;5651;50.926;4.718;2023-02-21T05:02:21;101950.03;;;7.16;100.00
11190;BME280;5651;50.926;4.718;2023-02-21T05:04:47;101952.31;;;7.05;100.00
11190;BME280;5651;50.926;4.718;2023-02-21T05:07:12;101942.84;;;7.07;100.00
11190;BME280;5651;50.926;4.718;2023-02-21T05:09:38;101948.94;;;7.07;100.00
11190;BME280;5651;50.926;4.718;2023-02-21T05:12:04;101952.25;;;7.03;100.00
11190;BME280;5651;50.926;4.718;2023-02-21T05:14:37;101947.94;;;7.02;100.00
11190;BME280;5651;50.926;4.718;2023-02-21T05:17:03;101938.63;;;7.10;100.00
11190;BME280;5651;50.926;4.718;2023-02-21T05:19:29;101948.63;;;6.96;100.00
11190;BME280;5651;50.926;4.718;2023-02-21T05:21:57;101945.34;;;7.02;100.00
11190;BME280;5651;50.926;4.718;2023-02-21T05:24:24;101943.59;;;7.01;100.00
11190;BME280;5651;50.926;4.718;2023-02-21T05:26:51;101938.44;;;7.03;100.00
11190;BME280;5651;50.926;4.718;2023-02-21T05:29:18;101943.78;;;7.09;100.00
11190;BME280;5651;50.926;4.718;2023-02-21T05:31:45;101948.75;;;7.01;100.00
11190;BME280;5651;50.926;4.718;2023-02-21T05:34:11;101946.75;;;6.91;100.00
11190;BME280;5651;50.926;4.718;2023-02-21T05:36:37;101933.88;;;6.94;100.00
11190;BME280;5651;50.926;4.718;2023-02-21T05:39:03;101939.38;;;7.06;100.00
11190;BME280;5651;50.926;4.718;2023-02-21T05:41:29;101937.59;;;7.04;100.00
11190;BME280;5651;50.926;4.718;2023-02-21T05:43:55;101939.34;;;7.05;100.00
11190;BME280;5651;50.926;4.718;2023-02-21T05:46:29;101938.63;;;7.10;100.00
11190;BME280;5651;50.926;4.718;2023-02-21T05:48:57;101942.66;;;6.99;100.00
11190;BME280;5651;50.926;4.718;2023-02-21T05:51:24;101940.91;;;7.00;100.00
11190;BME280;5651;50.926;4.718;2023-02-21T05:53:50;101934.00;;;6.98;100.00
11190;BME280;5651;50.926;4.718;2023-02-21T05:56:17;101926.97;;;6.94;100.00
11190;BME280;5651;50.926;4.718;2023-02-21T05:58:43;101931.59;;;7.05;100.00
11190;BME280;5651;50.926;4.718;2023-02-21T06:01:09;101926.34;;;7.03;100.00
11190;BME280;5651;50.926;4.718;2023-02-21T06:03:35;101937.19;;;6.90;100.00
11190;BME280;5651;50.926;4.718;2023-02-21T06:06:00;101926.13;;;6.95;100.00
11190;BME280;5651;50.926;4.718;2023-02-21T06:08:26;101934.03;;;7.00;100.00
11190;BME280;5651;50.926;4.718;2023-02-21T06:10:53;101925.47;;;7.03;100.00
11190;BME280;5651;50.926;4.718;2023-02-21T06:13:18;101921.78;;;6.94;100.00
11190;BME280;5651;50.926;4.718;2023-02-21T06:15:44;101929.56;;;6.94;100.00
11190;BME280;5651;50.926;4.718;2023-02-21T06:18:14;101919.88;;;6.87;100.00
11190;BME280;5651;50.926;4.718;2023-02-21T06:20:40;101928.41;;;6.83;100.00
11190;BME280;5651;50.926;4.718;2023-02-21T06:23:06;101919.72;;;6.82;100.00
11190;BME280;5651;50.926;4.718;2023-02-21T06:25:32;101921.28;;;6.76;100.00
11190;BME280;5651;50.926;4.718;2023-02-21T06:27:58;101919.47;;;6.73;100.00
11190;BME280;5651;50.926;4.718;2023-02-21T06:30:24;101924.78;;;6.78;100.00
11190;BME280;5651;50.926;4.718;2023-02-21T06:32:50;101931.94;;;6.87;100.00
11190;BME280;5651;50.926;4.718;2023-02-21T06:35:15;101930.88;;;6.80;100.00
11190;BME280;5651;50.926;4.718;2023-02-21T06:37:41;101930.59;;;6.69;100.00
11190;BME280;5651;50.926;4.718;2023-02-21T06:40:07;101936.44;;;6.63;100.00
11190;BME280;5651;50.926;4.718;2023-02-21T06:42:33;101938.22;;;6.64;100.00
11190;BME280;5651;50.926;4.718;2023-02-21T06:44:59;101936.56;;;6.66;100.00
11190;BME280;5651;50.926;4.718;2023-02-21T06:47:24;101933.31;;;6.74;100.00
11190;BME280;5651;50.926;4.718;2023-02-21T06:49:50;101930.19;;;6.86;100.00
11190;BME280;5651;50.926;4.718;2023-02-21T06:52:16;101939.81;;;6.91;100.00
11190;BME280;5651;50.926;4.718;2023-02-21T06:54:42;101935.38;;;6.86;100.00
11190;BME280;5651;50.926;4.718;2023-02-21T06:57:07;101936.16;;;6.83;100.00
11190;BME280;5651;50.926;4.718;2023-02-21T06:59:33;101941.34;;;6.83;100.00
11190;BME280;5651;50.926;4.718;2023-02-21T07:01:59;101940.69;;;6.90;100.00
11190;BME280;5651;50.926;4.718;2023-02-21T07:04:25;101929.00;;;7.05;100.00
11190;BME280;5651;50.926;4.718;2023-02-21T07:06:51;101930.75;;;7.06;100.00
11190;BME280;5651;50.926;4.718;2023-02-21T07:09:17;101939.19;;;6.98;100.00
11190;BME280;5651;50.926;4.718;2023-02-21T07:11:43;101933.91;;;6.95;100.00
11190;BME280;5651;50.926;4.718;2023-02-21T07:14:11;101932.56;;;7.10;100.00
11190;BME280;5651;50.926;4.718;2023-02-21T07:16:37;101943.50;;;7.00;100.00
11190;BME280;5651;50.926;4.718;2023-02-21T07:19:02;101941.72;;;6.97;100.00
11190;BME280;5651;50.926;4.718;2023-02-21T07:21:28;101938.97;;;6.91;100.00
11190;BME280;5651;50.926;4.718;2023-02-21T07:23:55;101934.56;;;6.88;100.00
11190;BME280;5651;50.926;4.718;2023-02-21T07:26:21;101934.72;;;6.93;100.00
11190;BME280;5651;50.926;4.718;2023-02-21T07:28:47;101937.31;;;6.93;100.00
11190;BME280;5651;50.926;4.718;2023-02-21T07:31:13;101941.69;;;6.95;100.00
11190;BME280;5651;50.926;4.718;2023-02-21T07:33:39;101935.97;;;7.07;100.00
11190;BME280;5651;50.926;4.718;2023-02-21T07:36:05;101936.91;;;7.09;100.00
11190;BME280;5651;50.926;4.718;2023-02-21T07:38:31;101935.25;;;7.13;100.00
11190;BME280;5651;50.926;4.718;2023-02-21T07:40:59;101948.69;;;7.00;100.00
11190;BME280;5651;50.926;4.718;2023-02-21T07:43:26;101940.69;;;6.90;100.00
11190;BME280;5651;50.926;4.718;2023-02-21T07:45:52;101947.50;;;6.87;100.00
11190;BME280;5651;50.926;4.718;2023-02-21T07:48:18;101949.28;;;6.89;100.00
11190;BME280;5651;50.926;4.718;2023-02-21T07:50:44;101934.84;;;6.97;100.00
11190;BME280;5651;50.926;4.718;2023-02-21T07:53:11;101933.50;;;7.12;100.00
11190;BME280;5651;50.926;4.718;2023-02-21T07:55:37;101948.13;;;7.10;100.00
11190;BME280;5651;50.926;4.718;2023-02-21T07:58:03;101944.47;;;7.03;100.00
11190;BME280;5651;50.926;4.718;2023-02-21T08:00:29;101939.53;;;7.11;100.00
11190;BME280;5651;50.926;4.718;2023-02-21T08:02:55;101941.06;;;7.04;100.00
11190;BME280;5651;50.926;4.718;2023-02-21T08:05:21;101947.19;;;7.08;100.00
11190;BME280;5651;50.926;4.718;2023-02-21T08:07:47;101947.72;;;6.96;100.00
11190;BME280;5651;50.926;4.718;2023-02-21T08:10:23;101953.66;;;6.90;100.00
11190;BME280;5651;50.926;4.718;2023-02-21T08:12:50;101951.47;;;7.06;100.00
11190;BME280;5651;50.926;4.718;2023-02-21T08:15:16;101944.78;;;7.14;100.00
11190;BME280;5651;50.926;4.718;2023-02-21T08:17:42;101941.53;;;7.21;100.00
11190;BME280;5651;50.926;4.718;2023-02-21T08:20:09;101948.41;;;7.21;100.00
11190;BME280;5651;50.926;4.718;2023-02-21T08:22:37;101950.38;;;6.97;100.00
11190;BME280;5651;50.926;4.718;2023-02-21T08:25:03;101953.44;;;6.84;100.00
11190;BME280;5651;50.926;4.718;2023-02-21T08:27:29;101948.47;;;6.90;100.00
11190;BME280;5651;50.926;4.718;2023-02-21T08:29:55;101952.75;;;6.90;100.00
11190;BME280;5651;50.926;4.718;2023-02-21T08:32:21;101944.94;;;6.88;100.00
11190;BME280;5651;50.926;4.718;2023-02-21T08:34:47;101938.88;;;6.88;100.00
11190;BME280;5651;50.926;4.718;2023-02-21T08:37:13;101940.63;;;6.89;100.00
11190;BME280;5651;50.926;4.718;2023-02-21T08:39:47;101941.38;;;6.85;100.00
11190;BME280;5651;50.926;4.718;2023-02-21T08:42:14;101941.34;;;6.83;100.00
11190;BME280;5651;50.926;4.718;2023-02-21T08:44:43;101941.38;;;6.85;100.00
11190;BME280;5651;50.926;4.718;2023-02-21T08:47:10;101939.66;;;6.85;100.00
11190;BME280;5651;50.926;4.718;2023-02-21T08:49:36;101937.81;;;6.81;100.00
11190;BME280;5651;50.926;4.718;2023-02-21T08:52:07;101945.63;;;6.82;100.00
11190;BME280;5651;50.926;4.718;2023-02-21T08:54:33;101936.94;;;6.80;100.00
11190;BME280;5651;50.926;4.718;2023-02-21T08:56:59;101940.41;;;6.81;100.00
11190;BME280;5651;50.926;4.718;2023-02-21T08:59:25;101938.25;;;6.96;100.00
11190;BME280;5651;50.926;4.718;2023-02-21T09:01:53;101930.25;;;7.19;100.00
11190;BME280;5651;50.926;4.718;2023-02-21T09:04:18;101933.69;;;7.20;100.00
11190;BME280;5651;50.926;4.718;2023-02-21T09:06:44;101932.69;;;7.13;100.00
11190;BME280;5651;50.926;4.718;2023-02-21T09:09:10;101937.94;;;7.16;100.00
11190;BME280;5651;50.926;4.718;2023-02-21T09:11:36;101933.53;;;7.13;100.00
11190;BME280;5651;50.926;4.718;2023-02-21T09:14:01;101923.97;;;7.11;100.00
11190;BME280;5651;50.926;4.718;2023-02-21T09:16:31;101926.00;;;7.21;100.00
11190;BME280;5651;50.926;4.718;2023-02-21T09:18:58;101925.91;;;7.18;100.00
11190;BME280;5651;50.926;4.718;2023-02-21T09:21:25;101931.09;;;7.20;100.00
11190;BME280;5651;50.926;4.718;2023-02-21T09:23:55;101929.75;;;7.34;100.00
11190;BME280;5651;50.926;4.718;2023-02-21T09:26:21;101930.72;;;7.38;100.00
11190;BME280;5651;50.926;4.718;2023-02-21T09:28:49;101921.78;;;7.26;100.00
11190;BME280;5651;50.926;4.718;2023-02-21T09:31:15;101921.03;;;7.30;100.00
11190;BME280;5651;50.926;4.718;2023-02-21T09:33:41;101912.63;;;7.39;100.00
11190;BME280;5651;50.926;4.718;2023-02-21T09:36:08;101911.16;;;7.49;100.00
11190;BME280;5651;50.926;4.718;2023-02-21T09:38:34;101915.31;;;7.44;100.00
11190;BME280;5651;50.926;4.718;2023-02-21T09:41:03;101905.13;;;7.50;100.00
11190;BME280;5651;50.926;4.718;2023-02-21T09:43:36;101897.84;;;7.70;100.00
11190;BME280;5651;50.926;4.718;2023-02-21T09:46:18;101894.06;;;7.57;100.00
11190;BME280;5651;50.926;4.718;2023-02-21T09:48:46;101896.56;;;7.54;100.00
11190;BME280;5651;50.926;4.718;2023-02-21T09:51:13;101893.84;;;7.50;100.00
11190;BME280;5651;50.926;4.718;2023-02-21T09:53:42;101891.59;;;7.62;100.00
11190;BME280;5651;50.926;4.718;2023-02-21T09:58:54;101899.75;;;7.79;100.00
11190;BME280;5651;50.926;4.718;2023-02-21T10:01:28;101897.03;;;7.73;100.00
11190;BME280;5651;50.926;4.718;2023-02-21T10:04:15;101896.09;;;7.69;100.00
11190;BME280;5651;50.926;4.718;2023-02-21T10:06:51;101898.78;;;7.74;100.00
11190;BME280;5651;50.926;4.718;2023-02-21T10:12:09;101895.28;;;7.72;100.00
11190;BME280;5651;50.926;4.718;2023-02-21T10:15:15;101901.56;;;7.83;100.00
11190;BME280;5651;50.926;4.718;2023-02-21T10:17:58;101897.31;;;7.85;100.00
11190;BME280;5651;50.926;4.718;2023-02-21T10:20:32;101900.91;;;7.55;100.00
11190;BME280;5651;50.926;4.718;2023-02-21T10:23:01;101901.88;;;7.59;100.00
11190;BME280;5651;50.926;4.718;2023-02-21T10:25:30;101903.44;;;7.89;100.00
11190;BME280;5651;50.926;4.718;2023-02-21T10:27:58;101897.41;;;7.88;100.00
11190;BME280;5651;50.926;4.718;2023-02-21T10:30:36;101897.94;;;8.13;100.00
11190;BME280;5651;50.926;4.718;2023-02-21T10:33:06;101892.63;;;8.07;100.00
11190;BME280;5651;50.926;4.718;2023-02-21T10:35:33;101886.47;;;8.03;100.00
11190;BME280;5651;50.926;4.718;2023-02-21T10:38:00;101888.03;;;7.95;100.00
11190;BME280;5651;50.926;4.718;2023-02-21T10:40:39;101886.00;;;7.83;100.00
11190;BME280;5651;50.926;4.718;2023-02-21T10:43:11;101886.22;;;7.91;100.00
11190;BME280;5651;50.926;4.718;2023-02-21T10:45:46;101892.31;;;7.93;100.00
11190;BME280;5651;50.926;4.718;2023-02-21T10:48:15;101887.16;;;7.95;100.00
11190;BME280;5651;50.926;4.718;2023-02-21T10:53:31;101876.91;;;8.01;100.00
11190;BME280;5651;50.926;4.718;2023-02-21T10:56:19;101889.78;;;7.96;100.00
11190;BME280;5651;50.926;4.718;2023-02-21T10:58:52;101883.16;;;8.09;100.00
11190;BME280;5651;50.926;4.718;2023-02-21T11:03:52;101891.06;;;8.15;100.00
11190;BME280;5651;50.926;4.718;2023-02-21T11:08:56;101884.94;;;8.12;100.00
11190;BME280;5651;50.926;4.718;2023-02-21T11:11:37;101881.94;;;7.93;100.00
11190;BME280;5651;50.926;4.718;2023-02-21T11:14:21;101880.09;;;7.89;100.00
11190;BME280;5651;50.926;4.718;2023-02-21T11:19:47;101876.75;;;7.93;100.00
11190;BME280;5651;50.926;4.718;2023-02-21T11:22:15;101868.06;;;7.92;100.00
11190;BME280;5651;50.926;4.718;2023-02-21T11:24:48;101857.78;;;7.96;100.00
11190;BME280;5651;50.926;4.718;2023-02-21T11:27:15;101866.53;;;8.01;100.00
11190;BME280;5651;50.926;4.718;2023-02-21T11:29:43;101853.56;;;8.02;100.00
11190;BME280;5651;50.926;4.718;2023-02-21T11:32:20;101864.28;;;8.16;100.00
11190;BME280;5651;50.926;4.718;2023-02-21T11:34:48;101849.50;;;8.14;100.00
11190;BME280;5651;50.926;4.718;2023-02-21T11:37:14;101849.41;;;8.09;100.00
11190;BME280;5651;50.926;4.718;2023-02-21T11:39:41;101854.59;;;8.09;100.00
11190;BME280;5651;50.926;4.718;2023-02-21T11:42:27;101845.06;;;8.09;100.00
11190;BME280;5651;50.926;4.718;2023-02-21T11:47:45;101841.34;;;8.38;100.00
11190;BME280;5651;50.926;4.718;2023-02-21T11:50:30;101838.09;;;8.47;100.00
11190;BME280;5651;50.926;4.718;2023-02-21T11:53:06;101841.94;;;8.24;100.00
11190;BME280;5651;50.926;4.718;2023-02-21T11:55:38;101835.69;;;8.15;100.00
11190;BME280;5651;50.926;4.718;2023-02-21T12:00:51;101832.22;;;8.16;100.00
11190;BME280;5651;50.926;4.718;2023-02-21T12:03:40;101826.63;;;8.38;100.00
11190;BME280;5651;50.926;4.718;2023-02-21T12:11:41;101827.66;;;8.45;100.00
11190;BME280;5651;50.926;4.718;2023-02-21T12:17:05;101818.25;;;8.50;100.00
11190;BME280;5651;50.926;4.718;2023-02-21T12:24:53;101814.47;;;8.36;100.00
11190;BME280;5651;50.926;4.718;2023-02-21T12:39:09;101794.03;;;8.51;100.00
11190;BME280;5651;50.926;4.718;2023-02-21T12:44:17;101781.31;;;8.65;100.00
11190;BME280;5651;50.926;4.718;2023-02-21T12:49:36;101779.47;;;8.60;100.00
11190;BME280;5651;50.926;4.718;2023-02-21T12:57:31;101774.34;;;8.63;100.00
11190;BME280;5651;50.926;4.718;2023-02-21T13:00:21;101767.56;;;8.71;100.00
11190;BME280;5651;50.926;4.718;2023-02-21T13:05:35;101765.91;;;8.76;100.00
11190;BME280;5651;50.926;4.718;2023-02-21T13:10:50;101758.22;;;8.82;100.00
11190;BME280;5651;50.926;4.718;2023-02-21T13:13:21;101761.81;;;8.91;100.00
11190;BME280;5651;50.926;4.718;2023-02-21T13:15:49;101761.06;;;8.96;100.00
11190;BME280;5651;50.926;4.718;2023-02-21T13:18:25;101760.56;;;9.17;100.00
11190;BME280;5651;50.926;4.718;2023-02-21T13:21:01;101750.25;;;9.24;100.00
11190;BME280;5651;50.926;4.718;2023-02-21T13:23:31;101750.06;;;9.13;100.00
11190;BME280;5651;50.926;4.718;2023-02-21T13:28:55;101744.19;;;9.25;100.00
11190;BME280;5651;50.926;4.718;2023-02-21T13:31:27;101741.78;;;9.37;100.00
11190;BME280;5651;50.926;4.718;2023-02-21T13:34:02;101741.69;;;9.32;100.00
11190;BME280;5651;50.926;4.718;2023-02-21T13:39:09;101725.00;;;9.16;100.00
11190;BME280;5651;50.926;4.718;2023-02-21T13:41:49;101726.66;;;9.13;100.00
11190;BME280;5651;50.926;4.718;2023-02-21T13:44:21;101725.03;;;9.19;100.00
11190;BME280;5651;50.926;4.718;2023-02-21T13:57:42;101715.19;;;9.60;100.00
11190;BME280;5651;50.926;4.718;2023-02-21T14:02:59;101705.38;;;9.39;100.00
11190;BME280;5651;50.926;4.718;2023-02-21T14:10:51;101697.25;;;9.17;100.00
11190;BME280;5651;50.926;4.718;2023-02-21T14:21:41;101681.19;;;9.44;100.00
11190;BME280;5651;50.926;4.718;2023-02-21T14:24:26;101695.88;;;9.42;100.00
11190;BME280;5651;50.926;4.718;2023-02-21T14:27:32;101692.41;;;9.42;100.00
11190;BME280;5651;50.926;4.718;2023-02-21T14:37:51;101677.16;;;9.68;100.00
11190;BME280;5651;50.926;4.718;2023-02-21T14:43:11;101670.25;;;9.72;100.00
11190;BME280;5651;50.926;4.718;2023-02-21T14:45:44;101666.88;;;9.82;100.00
11190;BME280;5651;50.926;4.718;2023-02-21T15:04:33;101662.66;;;9.90;100.00
11190;BME280;5651;50.926;4.718;2023-02-21T15:07:20;101667.06;;;9.96;100.00
11190;BME280;5651;50.926;4.718;2023-02-21T15:10:25;101660.09;;;9.95;100.00
11190;BME280;5651;50.926;4.718;2023-02-21T15:12:54;101664.28;;;9.82;100.00
11190;BME280;5651;50.926;4.718;2023-02-21T15:15:27;101654.13;;;10.04;100.00
11190;BME280;5651;50.926;4.718;2023-02-21T15:20:20;101658.16;;;9.78;100.00
11190;BME280;5651;50.926;4.718;2023-02-21T15:25:35;101655.44;;;9.66;100.00
11190;BME280;5651;50.926;4.718;2023-02-21T15:28:03;101646.81;;;9.72;100.00
11190;BME280;5651;50.926;4.718;2023-02-21T15:30:38;101653.78;;;9.74;100.00
11190;BME280;5651;50.926;4.718;2023-02-21T15:35:36;101650.34;;;9.75;100.00
11190;BME280;5651;50.926;4.718;2023-02-21T15:38:05;101649.31;;;9.61;100.00
11190;BME280;5651;50.926;4.718;2023-02-21T15:40:34;101647.47;;;9.54;100.00
11190;BME280;5651;50.926;4.718;2023-02-21T15:43:02;101642.22;;;9.50;100.00
11190;BME280;5651;50.926;4.718;2023-02-21T15:45:58;101641.31;;;9.48;100.00
11190;BME280;5651;50.926;4.718;2023-02-21T15:48:25;101650.81;;;9.43;100.00
11190;BME280;5651;50.926;4.718;2023-02-21T15:50:51;101645.59;;;9.43;100.00
11190;BME280;5651;50.926;4.718;2023-02-21T15:53:19;101643.00;;;9.43;100.00
11190;BME280;5651;50.926;4.718;2023-02-21T15:55:47;101637.72;;;9.37;100.00
11190;BME280;5651;50.926;4.718;2023-02-21T15:58:17;101640.31;;;9.37;100.00
11190;BME280;5651;50.926;4.718;2023-02-21T16:00:45;101636.03;;;9.39;100.00
11190;BME280;5651;50.926;4.718;2023-02-21T16:03:37;101629.91;;;9.37;100.00
11190;BME280;5651;50.926;4.718;2023-02-21T16:11:52;101632.53;;;9.39;100.00
11190;BME280;5651;50.926;4.718;2023-02-21T16:16:49;101628.09;;;9.31;100.00
11190;BME280;5651;50.926;4.718;2023-02-21T16:19:22;101625.47;;;9.28;100.00